Time;durP1;ratioP1;P1;durP2;ratioP2;P2;SDS_P1;SDS_P2;PMS_P1;PMS_P2;Temp;Humidity;BMP_temperature;BMP_pressure;BME280_temperature;BME280_humidity;BME280_pressure;Samples;Min_cycle;Max_cycle;Signal;HPM_P1;HPM_P2
2021/06/13 00:01:46;;;;;;;23.45;7.30;;;;;;;14.47;100.00;97381.63;5112099;28;20093;-75
2021/06/13 00:04:12;;;;;;;8.55;6.68;;;;;;;14.35;100.00;97355.69;5112067;28;20024;-75
2021/06/13 00:06:37;;;;;;;18.05;7.70;;;;;;;14.34;100.00;97367.41;5111999;28;20038;-75
2021/06/13 00:09:04;;;;;;;16.67;6.60;;;;;;;14.46;100.00;97374.50;5111730;28;20064;-75
2021/06/13 00:11:31;;;;;;;9.70;7.65;;;;;;;14.42;100.00;97380.28;5111998;28;20035;-75
2021/06/13 00:13:56;;;;;;;12.98;7.07;;;;;;;14.41;100.00;97374.03;5110631;28;20027;-75
2021/06/13 00:16:22;;;;;;;24.90;7.95;;;;;;;14.31;100.00;97348.81;5111779;28;20405;-75
2021/06/13 00:18:48;;;;;;;13.32;7.90;;;;;;;14.38;100.00;97360.81;5110554;28;20023;-75
2021/06/13 00:21:13;;;;;;;15.05;7.85;;;;;;;14.27;100.00;97352.75;5093482;28;20464;-75
2021/06/13 00:23:41;;;;;;;13.05;8.55;;;;;;;14.36;100.00;97361.94;5111629;28;20103;-75
2021/06/13 00:26:08;;;;;;;17.15;8.30;;;;;;;14.35;100.00;97365.59;5110610;28;20110;-75
2021/06/13 00:28:33;;;;;;;20.42;9.45;;;;;;;14.21;100.00;97363.13;5110229;28;20536;-75
2021/06/13 00:30:59;;;;;;;16.17;9.95;;;;;;;14.06;100.00;97349.03;5110446;28;20027;-75
2021/06/13 00:33:26;;;;;;;16.85;9.57;;;;;;;14.03;100.00;97347.44;5110414;28;20027;-75
2021/06/13 00:35:51;;;;;;;14.18;8.93;;;;;;;14.02;100.00;97352.97;5110484;28;20027;-75
2021/06/13 00:38:17;;;;;;;14.20;9.73;;;;;;;14.02;100.00;97363.72;5111571;28;20176;-75
2021/06/13 00:40:43;;;;;;;16.52;9.15;;;;;;;14.03;100.00;97360.03;5111361;28;20491;-75
2021/06/13 00:43:08;;;;;;;17.23;8.52;;;;;;;13.98;100.00;97354.16;5111528;28;20079;-75
2021/06/13 00:45:34;;;;;;;14.10;8.75;;;;;;;13.93;100.00;97351.00;5111367;28;20100;-75
2021/06/13 00:47:59;;;;;;;16.90;9.13;;;;;;;13.95;100.00;97357.97;5111536;28;20034;-75
2021/06/13 00:50:30;;;;;;;11.65;8.35;;;;;;;13.95;100.00;97352.59;5110287;28;20089;-75
2021/06/13 00:53:00;;;;;;;16.33;9.43;;;;;;;14.00;100.00;97365.66;5111567;28;20549;-75
2021/06/13 00:55:27;;;;;;;13.68;8.43;;;;;;;14.06;100.00;97357.09;5093199;28;20034;-75
2021/06/13 00:57:52;;;;;;;13.07;8.13;;;;;;;14.07;100.00;97353.44;5110120;28;20420;-76
2021/06/13 01:00:19;;;;;;;13.07;7.60;;;;;;;14.06;100.00;97355.28;5110253;28;20039;-76
2021/06/13 01:02:44;;;;;;;17.00;7.22;;;;;;;14.15;100.00;97352.84;5110099;28;20040;-75
2021/06/13 01:05:10;;;;;;;19.55;6.47;;;;;;;14.06;100.00;97349.03;5111707;28;20031;-75
2021/06/13 01:07:45;;;;;;;11.57;6.30;;;;;;;13.93;100.00;97334.88;5111295;28;20034;-76
2021/06/13 01:10:32;;;;;;;9.90;6.47;;;;;;;13.94;100.00;97328.50;5111258;28;20035;-75
2021/06/13 01:13:34;;;;;;;15.48;6.72;;;;;;;14.08;100.00;97339.03;5111407;28;20105;-75
2021/06/13 01:16:06;;;;;;;12.73;7.13;;;;;;;14.11;100.00;97338.78;5111359;28;20032;-74
2021/06/13 01:18:46;;;;;;;9.95;7.18;;;;;;;14.05;100.00;97344.66;5109755;28;20024;-75
2021/06/13 01:21:17;;;;;;;9.68;7.10;;;;;;;14.03;100.00;97334.00;5113098;28;20086;-75
2021/06/13 01:23:51;;;;;;;13.88;7.03;;;;;;;14.15;100.00;97339.41;5114097;28;20493;-75
2021/06/13 01:26:53;;;;;;;8.93;6.65;;;;;;;14.21;100.00;97339.78;5115298;28;20100;-75
2021/06/13 01:29:22;;;;;;;17.40;8.15;;;;;;;14.17;100.00;97330.22;5115175;28;20020;-75
2021/06/13 01:31:54;;;;;;;17.77;8.57;;;;;;;14.19;100.00;97332.78;5114988;28;20117;-75
2021/06/13 01:34:30;;;;;;;27.00;8.35;;;;;;;14.22;100.00;97337.91;5113965;28;20026;-75
2021/06/13 01:36:56;;;;;;;17.80;9.85;;;;;;;14.17;100.00;97330.22;5113708;28;20027;-75
2021/06/13 01:39:25;;;;;;;31.45;9.95;;;;;;;14.20;100.00;97331.81;5114640;28;20100;-75
2021/06/13 01:41:51;;;;;;;20.70;9.50;;;;;;;14.11;100.00;97314.59;5113531;28;20042;-75
2021/06/13 01:44:18;;;;;;;28.85;9.43;;;;;;;14.20;100.00;97332.69;5113789;28;20451;-75
2021/06/13 01:46:45;;;;;;;21.73;10.07;;;;;;;14.22;100.00;97330.69;5113531;28;20073;-75
2021/06/13 01:49:12;;;;;;;14.32;9.18;;;;;;;14.22;100.00;97325.31;5096485;28;20016;-75
2021/06/13 01:51:38;;;;;;;15.75;8.65;;;;;;;14.17;100.00;97315.91;5113283;28;20070;-75
2021/06/13 01:54:08;;;;;;;18.15;8.93;;;;;;;13.99;100.00;97299.41;5113330;28;20126;-75
2021/06/13 01:56:37;;;;;;;34.00;10.07;;;;;;;14.18;100.00;97329.22;5114554;28;20529;-75
2021/06/13 01:59:04;;;;;;;23.52;10.30;;;;;;;14.21;100.00;97326.31;5114491;28;20115;-75
2021/06/13 02:01:30;;;;;;;95.20;11.13;;;;;;;14.20;100.00;97323.75;5113312;28;20027;-75
2021/06/13 02:03:57;;;;;;;48.05;11.15;;;;;;;14.09;100.00;97316.50;5113017;28;20061;-75
2021/06/13 02:06:26;;;;;;;44.85;11.05;;;;;;;14.14;100.00;97327.78;5096085;28;20478;-75
2021/06/13 02:08:52;;;;;;;38.05;11.25;;;;;;;14.14;100.00;97319.72;5112968;28;20011;-75
2021/06/13 02:11:19;;;;;;;52.47;11.52;;;;;;;14.10;100.00;97316.41;5113180;28;20016;-75
2021/06/13 02:13:45;;;;;;;72.82;12.25;;;;;;;14.07;100.00;97318.47;5112923;28;20056;-75
2021/06/13 02:16:11;;;;;;;54.92;12.07;;;;;;;14.08;100.00;97321.06;5113096;28;20053;-75
2021/06/13 02:18:38;;;;;;;112.30;13.95;;;;;;;13.93;100.00;97297.22;5095896;28;20447;-75
2021/06/13 02:21:07;;;;;;;159.18;14.13;;;;;;;14.03;100.00;97306.25;5112625;28;20020;-75
2021/06/13 02:23:33;;;;;;;47.38;13.55;;;;;;;14.09;100.00;97305.75;5113003;28;20020;-75
2021/06/13 02:25:59;;;;;;;40.55;11.82;;;;;;;13.97;100.00;97291.47;5112636;28;20111;-75
2021/06/13 02:28:27;;;;;;;65.50;12.85;;;;;;;14.13;100.00;97313.47;5112720;28;20012;-75
2021/06/13 02:30:53;;;;;;;54.45;12.80;;;;;;;14.08;100.00;97296.00;5112228;28;20023;-75
2021/06/13 02:33:19;;;;;;;33.33;12.38;;;;;;;14.22;100.00;97313.69;5112870;28;20023;-75
2021/06/13 02:35:51;;;;;;;95.25;13.32;;;;;;;14.24;100.00;97301.88;5112576;28;20509;-75
2021/06/13 02:38:17;;;;;;;188.88;13.63;;;;;;;14.18;100.00;97310.41;5095394;28;20043;-75
2021/06/13 02:40:44;;;;;;;123.55;13.25;;;;;;;14.11;100.00;97298.44;5095267;28;20028;-75
2021/06/13 02:43:10;;;;;;;75.95;12.38;;;;;;;14.10;100.00;97299.41;5112499;28;20067;-75
2021/06/13 02:45:35;;;;;;;105.32;13.60;;;;;;;14.09;100.00;97300.38;5112526;28;20088;-75
2021/06/13 02:48:01;;;;;;;28.88;12.35;;;;;;;14.14;100.00;97298.19;5112144;28;20023;-74
2021/06/13 02:50:26;;;;;;;39.28;12.80;;;;;;;14.11;100.00;97295.75;5113589;28;20375;-74
2021/06/13 02:53:06;;;;;;;45.13;12.68;;;;;;;14.11;100.00;97290.38;5112022;28;20038;-76
2021/06/13 02:55:39;;;;;;;272.60;14.88;;;;;;;14.14;100.00;97303.56;5112274;28;20027;-74
2021/06/13 02:58:17;;;;;;;28.92;11.88;;;;;;;14.16;100.00;97312.38;5111945;28;20035;-73
2021/06/13 03:00:43;;;;;;;15.90;10.57;;;;;;;14.17;100.00;97297.09;5112106;28;20034;-75
2021/06/13 03:03:09;;;;;;;52.88;11.10;;;;;;;14.24;100.00;97304.56;5111833;28;20402;-74
2021/06/13 03:05:35;;;;;;;38.00;10.25;;;;;;;14.19;100.00;97304.06;5112036;28;20024;-73
2021/06/13 03:08:00;;;;;;;25.67;10.80;;;;;;;14.14;100.00;97298.19;5111745;28;20020;-74
2021/06/13 03:10:27;;;;;;;61.38;10.45;;;;;;;14.04;100.00;97292.69;5111947;28;20394;-74
2021/06/13 03:12:55;;;;;;;59.60;11.10;;;;;;;13.93;100.00;97283.78;5111749;28;20035;-76
2021/06/13 03:15:21;;;;;;;36.63;9.88;;;;;;;13.98;100.00;97289.63;5111959;28;20023;-75
2021/06/13 03:17:47;;;;;;;57.05;10.93;;;;;;;13.70;100.00;97300.84;5111702;28;20097;-75
2021/06/13 03:20:13;;;;;;;27.17;10.35;;;;;;;13.77;100.00;97296.72;5111576;28;20046;-75
2021/06/13 03:22:39;;;;;;;49.63;12.35;;;;;;;13.85;100.00;97300.50;5111793;28;20375;-75
2021/06/13 03:25:07;;;;;;;35.08;12.48;;;;;;;13.98;100.00;97290.50;5111479;28;20068;-75
2021/06/13 03:27:34;;;;;;;31.40;11.35;;;;;;;14.09;100.00;97297.69;5094564;28;20019;-75
2021/06/13 03:30:00;;;;;;;117.80;11.77;;;;;;;14.06;100.00;97293.41;5094218;28;20024;-75
2021/06/13 03:32:26;;;;;;;36.95;11.65;;;;;;;14.10;100.00;97277.88;5111561;28;20379;-75
2021/06/13 03:34:52;;;;;;;102.38;13.02;;;;;;;14.35;100.00;97301.00;5111454;28;20028;-74
2021/06/13 03:37:18;;;;;;;51.78;10.60;;;;;;;14.41;100.00;97306.75;5111335;28;20447;-75
2021/06/13 03:39:45;;;;;;;90.10;12.02;;;;;;;14.47;100.00;97300.88;5111332;28;20073;-74
2021/06/13 03:42:11;;;;;;;76.13;11.20;;;;;;;14.55;100.00;97298.41;5110842;28;20038;-75
2021/06/13 03:44:37;;;;;;;47.20;10.23;;;;;;;14.70;100.00;97300.84;5093921;28;20027;-75
2021/06/13 03:47:03;;;;;;;61.88;10.10;;;;;;;14.84;100.00;97298.72;5112290;28;20045;-75
2021/06/13 03:49:31;;;;;;;16.55;10.30;;;;;;;14.99;100.00;97301.94;5112500;28;20114;-75
2021/06/13 03:51:56;;;;;;;23.30;9.57;;;;;;;15.11;100.00;97306.31;5110981;28;20042;-75
2021/06/13 03:54:22;;;;;;;27.85;9.23;;;;;;;15.24;100.00;97301.59;5111345;28;20024;-75
2021/06/13 03:56:53;;;;;;;28.05;9.77;;;;;;;15.26;100.00;97304.19;5112262;28;20030;-75
2021/06/13 03:59:23;;;;;;;32.50;11.05;;;;;;;15.22;100.00;97291.94;5110934;28;20027;-75
2021/06/13 04:01:49;;;;;;;26.30;10.20;;;;;;;15.03;100.00;97304.28;5110834;28;20024;-75
2021/06/13 04:04:16;;;;;;;37.58;9.27;;;;;;;14.81;100.00;97271.16;5110794;28;20343;-75
2021/06/13 04:06:43;;;;;;;71.25;9.43;;;;;;;14.91;100.00;97285.59;5110909;28;20038;-75
2021/06/13 04:09:10;;;;;;;17.75;9.07;;;;;;;14.98;100.00;97295.72;5110637;28;20027;-75
2021/06/13 04:11:36;;;;;;;17.00;8.80;;;;;;;14.99;100.00;97286.66;5093613;28;20035;-75
2021/06/13 04:14:03;;;;;;;74.53;10.05;;;;;;;15.16;100.00;97288.78;5111783;28;20023;-75
2021/06/13 04:16:29;;;;;;;58.15;9.35;;;;;;;15.22;100.00;97287.41;5110845;28;20035;-75
2021/06/13 04:18:55;;;;;;;71.07;10.30;;;;;;;15.38;100.00;97279.72;5111923;28;20458;-75
2021/06/13 04:21:21;;;;;;;17.50;8.77;;;;;;;15.46;100.00;97285.31;5110446;28;20019;-75
2021/06/13 04:23:48;;;;;;;21.83;9.07;;;;;;;15.43;100.00;97269.41;5111799;28;20050;-75
2021/06/13 04:26:17;;;;;;;17.20;9.40;;;;;;;15.45;100.00;97283.59;5110164;28;20039;-75
2021/06/13 04:28:43;;;;;;;41.13;9.45;;;;;;;15.60;100.00;97276.91;5110483;28;20020;-75
2021/06/13 04:31:16;;;;;;;36.85;8.75;;;;;;;15.58;100.00;97272.66;5111603;28;20019;-75
2021/06/13 04:33:44;;;;;;;33.00;8.70;;;;;;;15.64;100.00;97251.41;5110383;28;20023;-75
2021/06/13 04:36:11;;;;;;;13.80;8.32;;;;;;;16.04;100.00;97282.97;5110179;28;20061;-75
2021/06/13 04:38:37;;;;;;;13.20;8.32;;;;;;;16.18;100.00;97299.66;5111129;28;20043;-75
2021/06/13 04:41:03;;;;;;;17.02;8.45;;;;;;;16.24;100.00;97298.28;5110710;28;20406;-75
2021/06/13 04:43:29;;;;;;;24.52;9.70;;;;;;;16.11;100.00;97295.81;5123555;28;20037;-75
2021/06/13 04:45:55;;;;;;;18.83;8.93;;;;;;;16.09;100.00;97286.13;5107674;28;20038;-75
2021/06/13 04:48:21;;;;;;;16.02;8.65;;;;;;;16.16;100.00;97298.09;5107163;28;20031;-75
2021/06/13 04:50:47;;;;;;;20.98;9.15;;;;;;;16.22;100.00;97294.84;5108816;28;20069;-75
2021/06/13 04:53:54;;;;;;;17.50;8.93;;;;;;;16.41;100.00;97289.53;5107181;28;20023;-75
2021/06/13 04:56:22;;;;;;;14.20;8.48;;;;;;;16.80;100.00;97296.75;5111446;28;20410;-75
2021/06/13 04:58:47;;;;;;;15.27;8.43;;;;;;;16.97;100.00;97283.56;5112892;28;20039;-75
2021/06/13 05:01:13;;;;;;;12.95;8.52;;;;;;;17.40;100.00;97286.69;5112823;28;20027;-76
2021/06/13 05:03:42;;;;;;;14.35;8.13;;;;;;;17.94;100.00;97323.09;5111579;28;20106;-76
2021/06/13 05:06:07;;;;;;;17.85;9.35;;;;;;;17.87;100.00;97276.84;5111375;28;20448;-75
2021/06/13 05:08:33;;;;;;;14.50;8.40;;;;;;;18.34;96.97;97308.28;5112819;28;20027;-75
2021/06/13 05:10:58;;;;;;;13.23;7.35;;;;;;;18.83;93.79;97312.47;5112803;28;20482;-75
2021/06/13 05:13:24;;;;;;;18.65;7.80;;;;;;;19.10;92.54;97316.19;5112620;28;20157;-75
2021/06/13 05:15:50;;;;;;;14.13;8.15;;;;;;;19.22;89.84;97304.09;5111525;28;20038;-75
2021/06/13 05:18:15;;;;;;;16.58;8.48;;;;;;;19.25;89.32;97306.50;5110806;28;20098;-75
2021/06/13 05:20:41;;;;;;;12.25;8.18;;;;;;;19.14;88.61;97304.00;5111092;28;20023;-74
2021/06/13 05:23:07;;;;;;;12.65;7.80;;;;;;;19.00;88.29;97285.56;5112572;27;20055;-75
2021/06/13 05:25:35;;;;;;;14.15;8.48;;;;;;;19.18;89.29;97294.56;5112150;28;20027;-75
2021/06/13 05:28:02;;;;;;;15.43;7.40;;;;;;;19.40;84.85;97292.28;5110941;28;20019;-74
2021/06/13 05:30:30;;;;;;;11.45;6.93;;;;;;;19.66;85.65;97305.03;5112678;28;20019;-79
2021/06/13 05:32:56;;;;;;;10.30;7.75;;;;;;;20.23;84.00;97298.16;5114291;28;20019;-74
2021/06/13 05:35:23;;;;;;;11.20;6.88;;;;;;;20.90;78.65;97287.25;5130655;27;20524;-81
2021/06/13 05:37:49;;;;;;;11.23;6.18;;;;;;;20.68;80.28;97304.16;5115083;28;20543;-80
2021/06/13 05:40:15;;;;;;;18.02;6.45;;;;;;;20.98;78.32;97302.75;5096573;28;20135;-77
2021/06/13 05:42:40;;;;;;;10.05;6.30;;;;;;;22.19;72.03;97296.56;5110721;28;20495;-79
2021/06/13 05:45:09;;;;;;;11.02;5.95;;;;;;;24.10;65.94;97311.25;5094154;28;20070;-75
2021/06/13 05:47:34;;;;;;;8.57;6.38;;;;;;;25.69;58.76;97307.78;5111120;28;20062;-77
2021/06/13 05:50:00;;;;;;;7.30;5.85;;;;;;;24.63;60.18;97306.63;5113173;27;20071;-81
2021/06/13 05:52:26;;;;;;;7.07;4.75;;;;;;;25.13;58.59;97297.66;5096286;28;20062;-79
2021/06/13 05:54:52;;;;;;;5.65;5.05;;;;;;;24.87;59.25;97289.94;5112774;28;20045;-80
2021/06/13 05:57:18;;;;;;;10.07;5.65;;;;;;;24.05;62.21;97280.91;5112587;28;20032;-77
2021/06/13 05:59:43;;;;;;;6.65;5.05;;;;;;;23.64;63.63;97288.59;5095946;28;20028;-81
2021/06/13 06:02:09;;;;;;;5.05;4.53;;;;;;;24.39;60.52;97291.34;5111843;28;20034;-83
2021/06/13 06:04:34;;;;;;;6.93;4.18;;;;;;;24.55;59.64;97291.16;5094413;28;20016;-82
2021/06/13 06:07:00;;;;;;;12.52;5.55;;;;;;;24.41;60.33;97261.94;5093214;28;20026;-82
2021/06/13 06:09:26;;;;;;;10.85;5.35;;;;;;;25.03;58.78;97277.94;5091930;28;20462;-76
2021/06/13 06:11:51;;;;;;;4.60;4.03;;;;;;;25.86;55.51;97297.44;5093910;28;20510;-74
2021/06/13 06:14:17;;;;;;;5.72;5.13;;;;;;;26.48;52.97;97297.56;5095461;28;20027;-78
2021/06/13 06:16:44;;;;;;;9.05;4.20;;;;;;;26.00;54.50;97290.16;5112736;27;20043;-75
2021/06/13 06:19:10;;;;;;;5.03;3.67;;;;;;;26.10;54.54;97275.06;5111441;28;20028;-75
2021/06/13 06:21:36;;;;;;;6.88;5.32;;;;;;;26.89;51.68;97286.63;5112588;28;20027;-77
2021/06/13 06:24:01;;;;;;;10.02;3.90;;;;;;;27.72;49.17;97278.06;5113427;28;20023;-76
2021/06/13 06:26:27;;;;;;;4.88;4.10;;;;;;;28.22;47.81;97282.16;5111841;28;20019;-79
2021/06/13 06:28:52;;;;;;;9.02;4.50;;;;;;;27.98;49.05;97277.25;5112240;28;20047;-77
2021/06/13 06:31:18;;;;;;;5.90;4.00;;;;;;;28.23;48.63;97270.09;5113220;28;20047;-78
2021/06/13 06:33:44;;;;;;;6.63;3.90;;;;;;;29.22;46.61;97291.91;5112992;27;20035;-77
2021/06/13 06:36:09;;;;;;;4.93;3.67;;;;;;;28.62;46.97;97285.69;5094433;28;20471;-76
2021/06/13 06:38:35;;;;;;;14.10;6.18;;;;;;;28.99;46.77;97271.22;5111386;28;20040;-82
2021/06/13 06:41:00;;;;;;;6.13;5.15;;;;;;;28.78;46.29;97285.28;5111810;28;20517;-78
2021/06/13 06:43:26;;;;;;;9.40;4.85;;;;;;;28.06;47.75;97274.31;5111468;28;20455;-75
2021/06/13 06:45:52;;;;;;;17.10;4.53;;;;;;;27.40;49.78;97273.31;5110944;28;20040;-75
2021/06/13 06:48:17;;;;;;;10.45;7.18;;;;;;;26.74;52.23;97267.50;5112505;28;20076;-81
2021/06/13 06:50:43;;;;;;;10.15;7.75;;;;;;;25.08;55.65;97250.84;5114219;28;20035;-82
2021/06/13 06:53:09;;;;;;;11.15;7.55;;;;;;;24.31;59.53;97252.28;5096841;28;20032;-80
2021/06/13 06:55:35;;;;;;;9.95;6.60;;;;;;;24.22;60.81;97252.38;5111020;28;20445;-78
2021/06/13 06:58:01;;;;;;;10.65;6.80;;;;;;;24.12;61.39;97257.28;5111417;28;20031;-76
2021/06/13 07:00:27;;;;;;;8.13;5.53;;;;;;;24.05;62.62;97248.09;5111693;28;20031;-77
2021/06/13 07:02:52;;;;;;;8.07;5.68;;;;;;;24.03;63.47;97250.16;5112531;28;20110;-76
2021/06/13 07:05:18;;;;;;;9.82;5.95;;;;;;;24.03;64.06;97250.16;5112216;28;20093;-76
2021/06/13 07:07:44;;;;;;;7.82;5.18;;;;;;;23.79;63.84;97244.94;5113269;27;20084;-82
2021/06/13 07:10:11;;;;;;;12.00;6.50;;;;;;;24.48;61.26;97248.34;5109338;28;20023;-77
2021/06/13 07:12:37;;;;;;;15.73;7.05;;;;;;;25.43;59.39;97244.50;5111654;28;20027;-77
2021/06/13 07:15:04;;;;;;;5.50;4.90;;;;;;;25.39;58.45;97225.88;5111545;28;20084;-78
2021/06/13 07:17:30;;;;;;;7.93;4.85;;;;;;;25.54;58.06;97226.69;5110239;28;20047;-78
2021/06/13 07:19:56;;;;;;;7.95;5.40;;;;;;;25.23;56.80;97241.53;5111124;28;20058;-78
2021/06/13 07:22:23;;;;;;;8.73;5.57;;;;;;;24.69;59.14;97241.06;5111014;28;20019;-78
2021/06/13 07:24:50;;;;;;;7.05;4.90;;;;;;;24.26;62.00;97212.72;5095637;28;20092;-83
2021/06/13 07:27:15;;;;;;;13.40;5.78;;;;;;;24.02;62.58;97231.22;5094898;28;20024;-76
2021/06/13 07:29:41;;;;;;;12.23;7.00;;;;;;;23.71;65.36;97217.69;5112328;28;20015;-80
2021/06/13 07:32:07;;;;;;;21.17;7.85;;;;;;;23.39;69.12;97227.00;5094007;28;20084;-78
2021/06/13 07:34:32;;;;;;;19.23;12.32;;;;;;;23.18;71.53;97224.94;5111324;27;20051;-77
2021/06/13 07:37:02;;;;;;;17.80;11.35;;;;;;;23.11;72.42;97237.59;5112306;28;20071;-77
2021/06/13 07:39:28;;;;;;;16.42;9.50;;;;;;;22.77;76.42;97226.19;5110593;28;20070;-78
2021/06/13 07:41:54;;;;;;;14.20;7.75;;;;;;;22.54;77.70;97238.91;5111470;28;20482;-77
2021/06/13 07:44:20;;;;;;;13.45;7.10;;;;;;;22.47;78.73;97243.34;5111208;28;20080;-79
2021/06/13 07:46:46;;;;;;;9.73;7.28;;;;;;;22.03;79.89;97240.25;5111309;28;20024;-77
2021/06/13 07:49:11;;;;;;;7.53;6.28;;;;;;;21.83;81.06;97253.38;5094120;28;20031;-77
2021/06/13 07:51:37;;;;;;;15.07;8.40;;;;;;;21.90;81.02;97246.22;5111097;28;20047;-77
2021/06/13 07:54:02;;;;;;;13.18;9.25;;;;;;;21.90;83.14;97268.00;5112251;28;20498;-77
2021/06/13 07:56:28;;;;;;;18.20;7.85;;;;;;;22.06;82.74;97268.00;5110972;28;20091;-77
2021/06/13 07:58:53;;;;;;;21.13;6.97;;;;;;;22.23;81.35;97273.41;5112008;28;20023;-78
2021/06/13 08:01:19;;;;;;;17.77;6.55;;;;;;;22.00;80.75;97265.97;5112024;28;20377;-77
2021/06/13 08:03:44;;;;;;;35.15;9.70;;;;;;;21.84;81.18;97255.03;5112111;28;20055;-77
2021/06/13 08:06:10;;;;;;;23.63;9.40;;;;;;;22.17;81.09;97268.66;5111950;28;20028;-77
2021/06/13 08:08:36;;;;;;;14.52;9.82;;;;;;;21.82;80.85;97254.38;5112171;28;20517;-76
2021/06/13 08:11:03;;;;;;;17.80;8.13;;;;;;;22.01;79.41;97264.94;5110629;28;20034;-77
2021/06/13 08:13:28;;;;;;;12.07;6.82;;;;;;;21.97;78.18;97249.97;5107783;28;20027;-77
2021/06/13 08:15:54;;;;;;;14.82;6.55;;;;;;;21.99;77.22;97260.69;5111931;27;20040;-76
2021/06/13 08:18:20;;;;;;;10.70;6.10;;;;;;;21.99;76.43;97266.16;5111580;28;20057;-77
2021/06/13 08:20:45;;;;;;;9.27;6.03;;;;;;;21.99;76.63;97263.44;5111664;28;20076;-77
2021/06/13 08:23:11;;;;;;;15.23;5.70;;;;;;;21.95;78.50;97265.63;5110256;28;20028;-77
2021/06/13 08:25:37;;;;;;;10.02;5.50;;;;;;;21.82;79.17;97265.28;5110692;28;20031;-77
2021/06/13 08:28:02;;;;;;;13.85;5.60;;;;;;;21.97;79.25;97246.38;5110786;28;20468;-77
2021/06/13 08:30:28;;;;;;;11.45;5.43;;;;;;;22.27;78.89;97258.44;5109902;28;20122;-77
2021/06/13 08:32:54;;;;;;;33.38;21.58;;;;;;;22.40;78.17;97253.25;5112036;28;20057;-78
2021/06/13 08:35:19;;;;;;;13.15;8.50;;;;;;;22.77;76.85;97256.19;5110185;28;20062;-77
2021/06/13 08:37:45;;;;;;;9.93;4.60;;;;;;;23.61;70.45;97252.59;5111812;28;20034;-78
2021/06/13 08:40:12;;;;;;;5.85;4.97;;;;;;;24.08;68.71;97247.75;5093911;28;20079;-78
2021/06/13 08:42:39;;;;;;;10.45;4.60;;;;;;;24.80;65.27;97267.94;5111111;28;20032;-78
2021/06/13 08:45:07;;;;;;;10.18;4.53;;;;;;;25.46;59.90;97251.47;5110756;28;20023;-78
2021/06/13 08:47:34;;;;;;;6.57;4.30;;;;;;;25.69;58.83;97266.69;5110991;28;20019;-78
2021/06/13 08:49:59;;;;;;;6.90;4.35;;;;;;;26.02;57.14;97255.19;5094091;28;20489;-79
2021/06/13 08:52:25;;;;;;;5.25;4.15;;;;;;;26.51;55.92;97255.13;5111354;28;20111;-79
2021/06/13 08:54:51;;;;;;;5.20;4.10;;;;;;;27.32;54.42;97257.00;5111047;28;20611;-79
2021/06/13 08:57:16;;;;;;;8.43;6.13;;;;;;;27.62;51.79;97243.78;5110519;28;20106;-78
2021/06/13 08:59:43;;;;;;;11.80;4.55;;;;;;;27.96;50.80;97262.88;5110132;28;20019;-79
2021/06/13 09:02:09;;;;;;;15.10;5.65;;;;;;;27.77;51.04;97256.28;5095590;28;20070;-79
2021/06/13 09:04:35;;;;;;;24.05;5.93;;;;;;;27.62;52.05;97260.28;5123945;28;20051;-79
2021/06/13 09:07:14;;;;;;;11.98;4.95;;;;;;;27.29;51.64;97263.75;5110233;28;20474;-78
2021/06/13 09:09:40;;;;;;;6.60;4.80;;;;;;;26.90;54.03;97260.88;5111526;28;20020;-79
2021/06/13 09:12:07;;;;;;;15.32;7.15;;;;;;;26.64;55.14;97269.75;5110073;28;20083;-79
2021/06/13 09:14:44;;;;;;;12.65;7.07;;;;;;;25.97;60.27;97257.66;5110276;28;20110;-78
2021/06/13 09:17:30;;;;;;;11.00;5.10;;;;;;;25.39;62.52;97261.50;5110322;28;20032;-79
2021/06/13 09:20:05;;;;;;;18.65;7.30;;;;;;;25.13;63.69;97268.38;5108812;28;20478;-78
2021/06/13 09:22:31;;;;;;;17.63;6.55;;;;;;;24.81;62.66;97249.66;5109760;28;20047;-78
2021/06/13 09:25:05;;;;;;;18.60;7.63;;;;;;;24.52;67.84;97255.97;5110167;28;20079;-77
2021/06/13 09:27:31;;;;;;;59.40;13.15;;;;;;;24.18;71.78;97242.00;5111181;28;20047;-77
2021/06/13 09:29:56;;;;;;;6.60;5.78;;;;;;;23.82;70.50;97258.22;5092921;28;20066;-77
2021/06/13 09:32:22;;;;;;;7.80;5.43;;;;;;;23.53;75.52;97271.81;5111490;28;20019;-77
2021/06/13 09:35:21;;;;;;;12.88;7.30;;;;;;;23.19;76.54;97278.47;5111257;28;20020;-77
2021/06/13 09:38:17;;;;;;;16.90;8.27;;;;;;;22.67;81.66;97293.75;5098473;28;20027;-79
2021/06/13 09:40:52;;;;;;;24.45;9.55;;;;;;;22.25;87.58;97293.16;5093069;28;20139;-76
2021/06/13 09:43:21;;;;;;;19.88;8.63;;;;;;;21.69;93.67;97296.78;5113763;28;20027;-78
2021/06/13 09:45:49;;;;;;;17.60;10.27;;;;;;;21.39;99.91;97285.53;5113532;28;20019;-77
2021/06/13 09:48:15;;;;;;;17.85;9.45;;;;;;;21.02;100.00;97280.50;5113977;28;20074;-77
2021/06/13 09:50:44;;;;;;;18.00;9.45;;;;;;;20.87;100.00;97276.72;5113676;28;20055;-77
2021/06/13 09:53:27;;;;;;;15.95;10.15;;;;;;;20.55;100.00;97268.44;5100737;28;20111;-77
2021/06/13 09:56:06;;;;;;;8.43;7.13;;;;;;;20.48;100.00;97284.56;5111075;28;20043;-78
2021/06/13 09:58:32;;;;;;;11.55;7.90;;;;;;;20.49;100.00;97285.41;5096049;28;20019;-77
2021/06/13 10:01:10;;;;;;;19.00;9.57;;;;;;;20.58;100.00;97289.03;5114107;28;20054;-79
2021/06/13 10:03:37;;;;;;;14.60;8.93;;;;;;;20.72;100.00;97297.41;5113076;28;20054;-82
2021/06/13 10:06:05;;;;;;;8.95;6.63;;;;;;;20.82;100.00;97298.13;5113010;28;20431;-77
2021/06/13 10:08:31;;;;;;;11.57;7.43;;;;;;;20.75;100.00;97279.91;5113275;28;20015;-87
2021/06/13 10:10:58;;;;;;;20.83;9.98;;;;;;;20.64;100.00;97272.06;5096620;28;20107;-76
2021/06/13 10:13:43;;;;;;;15.75;10.85;;;;;;;20.72;100.00;97283.81;5114474;28;20023;-76
2021/06/13 10:16:10;;;;;;;13.70;8.52;;;;;;;20.60;100.00;97270.69;5114907;28;20033;-75
2021/06/13 10:18:39;;;;;;;12.52;9.30;;;;;;;20.15;100.00;97270.94;5110276;28;20027;-79
2021/06/13 10:21:07;;;;;;;13.13;9.13;;;;;;;20.29;100.00;97282.09;5113605;28;20036;-82
2021/06/13 10:23:33;;;;;;;9.18;6.97;;;;;;;20.22;100.00;97256.53;5096340;28;20034;-83
2021/06/13 10:25:59;;;;;;;9.07;7.75;;;;;;;20.52;100.00;97272.34;5087928;28;20027;-83
2021/06/13 10:28:29;;;;;;;8.45;6.68;;;;;;;20.54;100.00;97224.13;5096311;28;20024;-82
2021/06/13 10:30:56;;;;;;;8.90;6.93;;;;;;;20.71;100.00;97259.50;5096244;28;20019;-77
2021/06/13 10:33:23;;;;;;;13.65;8.00;;;;;;;20.88;100.00;97266.69;5111199;28;20024;-79
2021/06/13 10:35:49;;;;;;;9.98;7.57;;;;;;;20.87;100.00;97267.72;5112620;28;20016;-79
2021/06/13 10:38:15;;;;;;;9.07;6.30;;;;;;;20.89;100.00;97266.53;5113381;28;20035;-80
2021/06/13 10:43:59;;;;;;;13.07;6.78;;;;;;;20.42;100.00;97268.91;5111445;28;20024;-76
2021/06/13 10:46:27;;;;;;;8.15;6.47;;;;;;;20.17;100.00;97256.19;5112116;28;20023;-77
2021/06/13 10:48:54;;;;;;;14.45;6.03;;;;;;;20.01;100.00;97250.66;5110387;28;20028;-77
2021/06/13 10:51:37;;;;;;;8.50;6.38;;;;;;;19.91;100.00;97241.75;5113194;28;20016;-77
2021/06/13 10:54:31;;;;;;;8.30;6.60;;;;;;;19.95;100.00;97248.59;5110560;28;20088;-77
2021/06/13 10:57:02;;;;;;;9.95;7.43;;;;;;;20.14;100.00;97248.34;5111574;28;20042;-78
2021/06/13 10:59:32;;;;;;;9.35;7.32;;;;;;;20.31;100.00;97236.59;5112918;28;20035;-80
2021/06/13 11:02:17;;;;;;;15.27;8.40;;;;;;;20.60;100.00;97248.94;5094733;28;20027;-81
2021/06/13 11:04:45;;;;;;;11.98;8.75;;;;;;;20.90;100.00;97270.09;5107242;28;20024;-76
2021/06/13 11:07:12;;;;;;;14.23;8.30;;;;;;;21.18;100.00;97282.44;5112793;28;20042;-76
2021/06/13 11:12:49;;;;;;;11.65;8.80;;;;;;;21.78;100.00;97282.16;5111999;28;20028;-76
2021/06/13 11:15:39;;;;;;;10.80;7.60;;;;;;;21.94;100.00;97290.31;5110298;28;20397;-76
2021/06/13 11:18:07;;;;;;;11.90;8.10;;;;;;;21.97;100.00;97269.03;5109311;28;20420;-76
2021/06/13 11:20:48;;;;;;;14.35;7.30;;;;;;;22.15;97.03;97274.28;5111592;28;20102;-78
2021/06/13 11:23:22;;;;;;;10.32;7.47;;;;;;;22.11;97.20;97279.25;5111485;28;20027;-77
2021/06/13 11:25:50;;;;;;;6.30;4.38;;;;;;;21.93;84.16;97270.38;5110989;28;20034;-76
2021/06/13 11:28:19;;;;;;;4.35;3.67;;;;;;;22.19;88.51;97272.91;5111252;28;20470;-76
2021/06/13 11:30:55;;;;;;;8.52;3.72;;;;;;;22.43;82.51;97275.56;5110075;28;20031;-75
2021/06/13 11:33:48;;;;;;;5.18;3.38;;;;;;;22.58;80.59;97275.66;5110438;28;20118;-77